SWR9MH EDDS-LSZH

Flight info

Callsign SWR9MH
Flight time 0h 20m
Altitude 17000
Route SUL3B/25 SUL T721 RILAX
Aircraft A320/M-SDE3FGHIRWY/LB1

Departure

Time 2026-02-18 12:29
Airport Stuttgart Airport (EDDS)

Arrival

Time 2026-02-18 12:49
Airport Zürich Airport (LSZH)
Time Latitude Longitude Altitude Speed Heading
2026-02-18 11:58 48.68867 9.19290 1285 ft 0 kts 344°
2026-02-18 12:16 48.68864 9.19291 1285 ft 2 kts 344°
2026-02-18 12:16 48.68847 9.19299 1289 ft 3 kts 344°
2026-02-18 12:16 48.68830 9.19306 1290 ft 3 kts 347°
2026-02-18 12:16 48.68812 9.19309 1288 ft 3 kts 17°
2026-02-18 12:17 48.68796 9.19295 1287 ft 3 kts 52°
2026-02-18 12:17 48.68784 9.19258 1288 ft 1 kts 73°
2026-02-18 12:17 48.68783 9.19257 1288 ft 0 kts 73°
2026-02-18 12:19 48.68785 9.19265 1288 ft 3 kts 74°
2026-02-18 12:19 48.68799 9.19342 1285 ft 15 kts 73°
2026-02-18 12:20 48.68829 9.19498 1285 ft 16 kts 73°
2026-02-18 12:20 48.68859 9.19659 1285 ft 16 kts 74°
2026-02-18 12:20 48.68869 9.19826 1286 ft 16 kts 123°
2026-02-18 12:20 48.68816 9.19914 1285 ft 18 kts 134°
2026-02-18 12:21 48.68761 9.20077 1289 ft 18 kts 79°
2026-02-18 12:21 48.68840 9.20494 1286 ft 22 kts 74°
2026-02-18 12:21 48.68883 9.20691 1287 ft 16 kts 52°
2026-02-18 12:22 48.68936 9.20671 1286 ft 18 kts 332°
2026-02-18 12:22 48.68980 9.20781 1287 ft 17 kts 74°
2026-02-18 12:22 48.69015 9.20962 1286 ft 20 kts 73°
2026-02-18 12:22 48.69055 9.21173 1285 ft 22 kts 73°
2026-02-18 12:23 48.69098 9.21399 1287 ft 23 kts 74°
2026-02-18 12:23 48.69143 9.21641 1285 ft 25 kts 74°
2026-02-18 12:23 48.69191 9.21893 1285 ft 26 kts 74°
2026-02-18 12:23 48.69242 9.22160 1285 ft 27 kts 74°
2026-02-18 12:24 48.69294 9.22438 1288 ft 28 kts 73°
2026-02-18 12:24 48.69349 9.22726 1285 ft 29 kts 74°
2026-02-18 12:24 48.69405 9.23023 1285 ft 30 kts 74°
2026-02-18 12:24 48.69462 9.23322 1285 ft 27 kts 74°
2026-02-18 12:25 48.69513 9.23590 1289 ft 23 kts 74°
2026-02-18 12:25 48.69393 9.23710 1287 ft 0 kts 224°
2026-02-18 12:26 48.69362 9.23664 1272 ft 12 kts 224°
2026-02-18 12:26 48.69304 9.23580 1287 ft 11 kts 224°
2026-02-18 12:26 48.69248 9.23520 1285 ft 9 kts 205°
2026-02-18 12:27 48.69231 9.23481 1285 ft 0 kts 253°
2026-02-18 12:28 48.69228 9.23462 1287 ft 18 kts 253°
2026-02-18 12:28 48.69115 9.22868 1288 ft 96 kts 254°
2026-02-18 12:28 48.68871 9.21587 1288 ft 154 kts 254°
2026-02-18 12:28 48.68580 9.19954 1771 ft 159 kts 254°
2026-02-18 12:29 48.68278 9.18343 2489 ft 160 kts 252°
2026-02-18 12:29 48.67583 9.14762 3227 ft 200 kts 252°
2026-02-18 12:29 48.67160 9.12627 3558 ft 224 kts 252°
2026-02-18 12:30 48.66613 9.10281 4029 ft 247 kts 239°
2026-02-18 12:30 48.65386 9.08451 4845 ft 255 kts 208°
2026-02-18 12:30 48.63705 9.07512 5814 ft 260 kts 200°
2026-02-18 12:30 48.61983 9.06607 6751 ft 264 kts 201°
2026-02-18 12:31 48.60243 9.05648 7649 ft 267 kts 202°
2026-02-18 12:31 48.58483 9.04671 8548 ft 271 kts 202°
2026-02-18 12:31 48.56717 9.03690 9442 ft 275 kts 203°
2026-02-18 12:31 48.54902 9.02664 10220 ft 283 kts 206°
2026-02-18 12:32 48.53154 9.01109 10505 ft 302 kts 221°
2026-02-18 12:32 48.51598 8.98828 10782 ft 321 kts 233°
2026-02-18 12:32 48.50339 8.95995 11417 ft 327 kts 243°
2026-02-18 12:32 48.49218 8.92994 12214 ft 330 kts 243°
2026-02-18 12:33 48.48077 8.90024 13031 ft 332 kts 243°
2026-02-18 12:33 48.45728 8.83985 14542 ft 336 kts 244°
2026-02-18 12:33 48.44542 8.80930 15222 ft 339 kts 244°
2026-02-18 12:34 48.43349 8.77852 15905 ft 341 kts 244°
2026-02-18 12:34 48.42144 8.74749 16577 ft 344 kts 244°
2026-02-18 12:34 48.40901 8.71636 16888 ft 348 kts 241°
2026-02-18 12:34 48.39377 8.68710 16956 ft 365 kts 233°
2026-02-18 12:35 48.37495 8.66019 16956 ft 381 kts 223°
2026-02-18 12:35 48.35226 8.63948 16958 ft 393 kts 210°
2026-02-18 12:35 48.32577 8.62714 16938 ft 403 kts 198°
2026-02-18 12:35 48.29823 8.61894 16956 ft 403 kts 197°
2026-02-18 12:36 48.27072 8.61092 16958 ft 403 kts 197°
2026-02-18 12:36 48.24317 8.60290 16959 ft 403 kts 197°
2026-02-18 12:36 48.21562 8.59483 16952 ft 402 kts 197°
2026-02-18 12:36 48.18817 8.58665 16959 ft 402 kts 198°
2026-02-18 12:37 48.16097 8.57847 16957 ft 402 kts 198°
2026-02-18 12:37 48.10590 8.56191 16939 ft 402 kts 198°
2026-02-18 12:37 48.07843 8.55377 16927 ft 397 kts 198°
2026-02-18 12:38 48.05199 8.54611 16321 ft 379 kts 198°
2026-02-18 12:38 48.02662 8.53868 15410 ft 370 kts 199°
2026-02-18 12:38 48.00253 8.52756 14468 ft 358 kts 205°
2026-02-18 12:38 47.97916 8.51552 13751 ft 347 kts 205°
2026-02-18 12:39 47.95714 8.50432 13607 ft 320 kts 205°
2026-02-18 12:39 47.93700 8.49415 13399 ft 299 kts 205°
2026-02-18 12:39 47.91759 8.48421 12851 ft 290 kts 205°
2026-02-18 12:39 47.89866 8.47437 12210 ft 285 kts 206°
2026-02-18 12:40 47.87999 8.46465 11606 ft 281 kts 205°
2026-02-18 12:40 47.86160 8.45510 10990 ft 278 kts 205°
2026-02-18 12:40 47.84346 8.44570 10412 ft 274 kts 204°
2026-02-18 12:40 47.82571 8.43653 9852 ft 271 kts 204°
2026-02-18 12:41 47.80795 8.42736 9202 ft 268 kts 204°
2026-02-18 12:41 47.77308 8.40936 7930 ft 262 kts 202°
2026-02-18 12:41 47.75598 8.40056 7276 ft 259 kts 201°
2026-02-18 12:42 47.73926 8.39198 6619 ft 256 kts 200°
2026-02-18 12:42 47.72253 8.38341 5995 ft 252 kts 199°
2026-02-18 12:42 47.70605 8.37502 5294 ft 250 kts 199°
2026-02-18 12:42 47.68961 8.36664 4636 ft 250 kts 199°
2026-02-18 12:43 47.67315 8.35825 4228 ft 248 kts 199°
2026-02-18 12:43 47.65727 8.35013 4178 ft 232 kts 199°
2026-02-18 12:43 47.64245 8.34349 4183 ft 214 kts 188°
2026-02-18 12:43 47.62807 8.34452 4186 ft 205 kts 166°
2026-02-18 12:44 47.61560 8.35331 4185 ft 204 kts 145°
2026-02-18 12:44 47.60503 8.36736 4185 ft 203 kts 140°
2026-02-18 12:44 47.59465 8.38172 4192 ft 204 kts 140°
2026-02-18 12:44 47.58423 8.39606 4144 ft 204 kts 139°
2026-02-18 12:45 47.57415 8.40994 3964 ft 190 kts 139°
2026-02-18 12:45 47.55641 8.43429 3476 ft 166 kts 139°
2026-02-18 12:45 47.54821 8.44554 3259 ft 158 kts 139°
2026-02-18 12:46 47.54051 8.45609 3059 ft 145 kts 139°
2026-02-18 12:46 47.53355 8.46563 2852 ft 140 kts 138°
2026-02-18 12:46 47.52644 8.47536 2666 ft 138 kts 137°
2026-02-18 12:46 47.51942 8.48497 2465 ft 137 kts 137°
2026-02-18 12:47 47.51245 8.49452 2271 ft 136 kts 136°
2026-02-18 12:47 47.50545 8.50409 2077 ft 137 kts 136°
2026-02-18 12:47 47.49843 8.51369 1890 ft 138 kts 136°
2026-02-18 12:47 47.49140 8.52330 1708 ft 138 kts 136°
2026-02-18 12:48 47.48445 8.53284 1519 ft 138 kts 137°
2026-02-18 12:48 47.47750 8.54233 1407 ft 128 kts 137°
2026-02-18 12:48 47.47212 8.54968 1384 ft 80 kts 137°
2026-02-18 12:48 47.46868 8.55437 1395 ft 60 kts 137°
2026-02-18 12:49 47.46558 8.55691 1396 ft 46 kts 167°
2026-02-18 12:49 47.46294 8.55878 1405 ft 20 kts 136°
2026-02-18 12:49 47.46191 8.55998 1408 ft 17 kts 169°
2026-02-18 12:50 47.46072 8.55986 1407 ft 18 kts 185°
2026-02-18 12:50 47.45942 8.55956 1411 ft 20 kts 198°
2026-02-18 12:50 47.45812 8.55887 1414 ft 20 kts 198°
2026-02-18 12:50 47.45672 8.55860 1408 ft 17 kts 186°
2026-02-18 12:51 47.45551 8.55841 1408 ft 14 kts 187°
2026-02-18 12:51 47.45470 8.55810 1407 ft 7 kts 186°
2026-02-18 12:51 47.45430 8.55804 1407 ft 2 kts 185°
2026-02-18 12:51 47.45424 8.55803 1407 ft 0 kts 185°